| time (UTC) | temp C | wind direction | speed KPH | gust KPH | rain 1hr cm | rain 24hr cm | rain mn cm | humidity % | barometer mb |
| 20260509211530 | 15 | 205 | 6.4 | 11.3 | 0.00 | 0.86 | 0.86 | 85 | 1009.7 |
| 20260509210030 | 14 | 237 | 3.2 | 9.7 | 0.00 | 0.86 | 0.86 | 87 | 1009.9 |
| 20260509204531 | 13 | 237 | 3.2 | 6.4 | 0.00 | 0.86 | 0.86 | 89 | 1009.9 |
| 20260509203030 | 12 | 174 | 1.6 | 6.4 | 0.00 | 0.86 | 0.86 | 92 | 1010.0 |
| 20260509201527 | 12 | 274 | 0.0 | 6.4 | 0.05 | 0.86 | 0.86 | 91 | 1010.0 |
| 20260509200032 | 12 | 170 | 3.2 | 8.0 | 0.08 | 0.86 | 0.86 | 91 | 1010.1 |
| 20260509194530 | 12 | 234 | 4.8 | 9.7 | 0.10 | 0.86 | 0.86 | 91 | 1010.1 |
| 20260509193030 | 12 | 252 | 4.8 | 9.7 | 0.10 | 0.86 | 0.86 | 91 | 1010.5 |
| 20260509191528 | 12 | 240 | 4.8 | 11.3 | 0.08 | 0.81 | 0.81 | 91 | 1010.6 |
| 20260509190040 | 12 | 228 | 1.6 | 6.4 | 0.08 | 0.79 | 0.79 | 91 | 1010.7 |
| 20260509184536 | 12 | 238 | 3.2 | 9.7 | 0.13 | 0.76 | 0.76 | 91 | 1010.6 |
| 20260509183037 | 12 | 241 | 6.4 | 16.1 | 0.20 | 0.76 | 0.76 | 91 | 1010.7 |
| 20260509181531 | 12 | 214 | 3.2 | 9.7 | 0.25 | 0.74 | 0.74 | 91 | 1010.7 |
| 20260509180030 | 11 | 172 | 8.0 | 12.9 | 0.28 | 0.71 | 0.71 | 91 | 1010.9 |
| 20260509174530 | 12 | 207 | 4.8 | 9.7 | 0.28 | 0.64 | 0.64 | 91 | 1011.2 |
| 20260509173038 | 11 | 253 | 8.0 | 17.7 | 0.25 | 0.56 | 0.56 | 90 | 1011.1 |
| 20260509171537 | 11 | 236 | 8.0 | 12.9 | 0.18 | 0.48 | 0.48 | 90 | 1011.3 |
| 20260509170036 | 12 | 246 | 6.4 | 14.5 | 0.13 | 0.41 | 0.41 | 90 | 1011.2 |
| 20260509164529 | 12 | 184 | 8.0 | 12.9 | 0.13 | 0.33 | 0.33 | 90 | 1011.2 |
| 20260509163029 | 12 | 245 | 6.4 | 9.7 | 0.15 | 0.30 | 0.30 | 90 | 1011.2 |
| 20260509161530 | 12 | 168 | 4.8 | 11.3 | 0.18 | 0.30 | 0.30 | 90 | 1011.1 |
| 20260509160028 | 11 | 218 | 6.4 | 9.7 | 0.20 | 0.28 | 0.28 | 90 | 1011.6 |
| 20260509154528 | 11 | 257 | 6.4 | 11.3 | 0.13 | 0.20 | 0.20 | 90 | 1011.7 |
| 20260509153032 | 11 | 207 | 6.4 | 14.5 | 0.08 | 0.15 | 0.15 | 90 | 1011.7 |
| 20260509151527 | 11 | 219 | 4.8 | 9.7 | 0.03 | 0.10 | 0.10 | 89 | 1011.7 |
| 20260509150032 | 12 | 195 | 3.2 | 9.7 | 0.03 | 0.08 | 0.08 | 89 | 1011.5 |
| 20260509144530 | 12 | 180 | 1.6 | 6.4 | 0.03 | 0.08 | 0.08 | 89 | 1011.5 |
| 20260509143028 | 11 | 219 | 3.2 | 6.4 | 0.03 | 0.08 | 0.08 | 89 | 1011.5 |
| 20260509141535 | 11 | 255 | 0.0 | 3.2 | 0.03 | 0.08 | 0.08 | 89 | 1011.4 |
| 20260509140034 | 11 | 176 | 1.6 | 6.4 | 0.00 | 0.05 | 0.05 | 89 | 1011.5 |
| 20260509134543 | 11 | 213 | 0.0 | 3.2 | 0.03 | 0.05 | 0.05 | 89 | 1011.5 |
| 20260509133033 | 11 | 0 | 0.0 | 3.2 | 0.05 | 0.05 | 0.05 | 89 | 1011.4 |
| 20260509131550 | 11 | 207 | 0.0 | 1.6 | 0.05 | 0.05 | 0.05 | 90 | 1011.3 |
| 20260509130043 | 11 | 238 | 0.0 | 4.8 | 0.05 | 0.05 | 0.05 | 90 | 1011.6 |
| 20260509124539 | 11 | 236 | 3.2 | 8.0 | 0.03 | 0.03 | 0.03 | 89 | 1011.9 |
| 20260509123031 | 11 | 218 | 4.8 | 6.4 | 0.00 | 0.00 | 0.00 | 89 | 1011.6 |
| 20260509121531 | 11 | 240 | 0.0 | 4.8 | 0.00 | 0.00 | 0.00 | 90 | 1011.5 |
| 20260509120028 | 10 | 224 | 3.2 | 6.4 | 0.00 | 0.00 | 0.00 | 90 | 1011.6 |
| 20260509114530 | 10 | 243 | 1.6 | 4.8 | 0.00 | 0.00 | 0.00 | 90 | 1011.3 |
| 20260509113030 | 10 | 0 | 0.0 | 3.2 | 0.00 | 0.00 | 0.00 | 90 | 1011.2 |
| 20260509111527 | 10 | 263 | 0.0 | 3.2 | 0.00 | 0.00 | 0.00 | 91 | 1011.2 |
| 20260509110030 | 10 | 0 | 0.0 | 1.6 | 0.00 | 0.00 | 0.00 | 91 | 1010.6 |
| 20260509104528 | 9 | 0 | 0.0 | 1.6 | 0.00 | 0.00 | 0.00 | 91 | 1010.6 |
| 20260509103031 | 10 | 343 | 0.0 | 1.6 | 0.00 | 0.00 | 0.00 | 91 | 1011.0 |
| 20260509101530 | 9 | 0 | 0.0 | 1.6 | 0.00 | 0.00 | 0.00 | 90 | 1011.1 |
| 20260509100035 | 10 | 0 | 0.0 | 1.6 | 0.00 | 0.00 | 0.00 | 90 | 1011.1 |
| 20260509094530 | 10 | 346 | 0.0 | 1.6 | 0.00 | 0.00 | 0.00 | 90 | 1011.1 |
| 20260509093030 | 10 | 0 | 0.0 | 1.6 | 0.00 | 0.00 | 0.00 | 90 | 1011.0 |
| 20260509091529 | 10 | 0 | 0.0 | 0.0 | 0.00 | 0.00 | 0.00 | 89 | 1011.3 |
| 20260509090030 | 9 | 0 | 0.0 | 0.0 | 0.00 | 0.00 | 0.00 | 90 | 1011.2 |
| 20260509084532 | 9 | 0 | 0.0 | 0.0 | 0.00 | 0.00 | 0.00 | 90 | 1011.2 |
| 20260509083029 | 9 | 0 | 0.0 | 1.6 | 0.00 | 0.00 | 0.00 | 90 | 1011.2 |
| 20260509081539 | 9 | 304 | 0.0 | 1.6 | 0.00 | 0.00 | 0.00 | 90 | 1011.2 |
| 20260509080031 | 10 | 0 | 0.0 | 1.6 | 0.00 | 0.00 | 0.00 | 90 | 1011.3 |
| 20260509074528 | 10 | 0 | 0.0 | 1.6 | 0.00 | 0.00 | 0.00 | 91 | 1011.5 |
| 20260509073027 | 9 | 0 | 0.0 | 1.6 | 0.00 | 0.00 | 0.00 | 90 | 1011.8 |
| 20260509071530 | 9 | 0 | 0.0 | 1.6 | 0.00 | 0.00 | 0.00 | 90 | 1011.9 |
| 20260509070030 | 9 | 327 | 0.0 | 1.6 | 0.00 | 0.00 | 0.00 | 90 | 1011.9 |
| 20260509064530 | 10 | 342 | 0.0 | 1.6 | 0.00 | 0.00 | 0.00 | 90 | 1011.9 |
| 20260509063030 | 10 | 311 | 0.0 | 1.6 | 0.00 | 0.00 | 0.00 | 89 | 1012.2 |
| 20260509061529 | 10 | 1 | 0.0 | 0.0 | 0.00 | 0.00 | 0.00 | 90 | 1012.4 |
| 20260509060030 | 10 | 0 | 0.0 | 0.0 | 0.00 | 0.00 | 0.00 | 89 | 1012.4 |
| 20260509054539 | 10 | 0 | 0.0 | 1.6 | 0.00 | 0.00 | 0.00 | 89 | 1012.6 |
| 20260509053110 | 10 | 27 | 0.0 | 1.6 | 0.00 | 0.00 | 0.00 | 89 | 1012.6 |
| 20260509051533 | 10 | 0 | 0.0 | 0.0 | 0.00 | 0.00 | 0.00 | 88 | 1012.7 |
| 20260509050039 | 11 | 349 | 0.0 | 1.6 | 0.00 | 0.00 | 0.00 | 87 | 1013.0 |
| 20260509044530 | 11 | 0 | 0.0 | 0.0 | 0.00 | 0.00 | 0.00 | 88 | 1012.9 |
| 20260509043028 | 11 | 0 | 0.0 | 0.0 | 0.00 | 0.00 | 0.00 | 88 | 1012.7 |
| 20260509041528 | 11 | 0 | 0.0 | 1.6 | 0.00 | 0.00 | 0.00 | 87 | 1012.5 |
| 20260509040029 | 11 | 299 | 0.0 | 1.6 | 0.00 | 0.00 | 0.00 | 87 | 1012.7 |
| 20260509034530 | 11 | 238 | 0.0 | 3.2 | 0.00 | 0.00 | 0.00 | 87 | 1012.8 |
| 20260509033031 | 11 | 0 | 0.0 | 1.6 | 0.00 | 0.00 | 0.00 | 87 | 1012.5 |
| 20260509031532 | 11 | 342 | 0.0 | 1.6 | 0.00 | 0.00 | 0.00 | 85 | 1012.2 |
| 20260509030035 | 11 | 0 | 0.0 | 1.6 | 0.00 | 0.00 | 0.00 | 83 | 1012.5 |
| 20260509024532 | 11 | 0 | 0.0 | 1.6 | 0.00 | 0.00 | 0.00 | 82 | 1013.1 |
| 20260509023042 | 11 | 302 | 0.0 | 1.6 | 0.00 | 0.00 | 0.00 | 80 | 1012.8 |
| 20260509021530 | 11 | 301 | 0.0 | 1.6 | 0.00 | 0.00 | 0.00 | 81 | 1012.7 |
| 20260509020028 | 11 | 302 | 0.0 | 1.6 | 0.00 | 0.00 | 0.00 | 80 | 1012.4 |
| 20260509014534 | 11 | 0 | 0.0 | 1.6 | 0.00 | 0.00 | 0.00 | 80 | 1012.7 |
| 20260509013032 | 11 | 0 | 0.0 | 1.6 | 0.00 | 0.00 | 0.00 | 79 | 1012.6 |
| 20260509011533 | 11 | 0 | 0.0 | 1.6 | 0.00 | 0.00 | 0.00 | 79 | 1012.5 |
| 20260509010028 | 12 | 0 | 0.0 | 1.6 | 0.00 | 0.00 | 0.00 | 79 | 1012.1 |
| 20260509004533 | 12 | 0 | 0.0 | 1.6 | 0.00 | 0.00 | 0.00 | 79 | 1011.9 |
| 20260509003042 | 12 | 0 | 0.0 | 0.0 | 0.00 | 0.00 | 0.00 | 78 | 1012.0 |
| 20260509001527 | 12 | 0 | 0.0 | 0.0 | 0.00 | 0.00 | 0.00 | 77 | 1012.0 |
| 20260509000029 | 12 | 304 | 0.0 | 1.6 | 0.00 | 0.00 | 0.00 | 75 | 1011.8 |
| 20260508234532 | 12 | 320 | 0.0 | 1.6 | 0.00 | 0.00 | 0.00 | 75 | 1011.6 |
| 20260508233030 | 13 | 320 | 0.0 | 0.0 | 0.00 | 0.00 | 0.00 | 74 | 1011.2 |
| 20260508231530 | 13 | 0 | 0.0 | 0.0 | 0.00 | 0.00 | 0.00 | 72 | 1011.3 |
| 20260508230032 | 13 | 330 | 0.0 | 1.6 | 0.00 | 0.00 | 0.00 | 73 | 1011.4 |
| 20260508224534 | 12 | 0 | 0.0 | 0.0 | 0.00 | 0.00 | 0.00 | 72 | 1011.7 |
| 20260508223028 | 13 | 0 | 0.0 | 3.2 | 0.00 | 0.00 | 0.00 | 70 | 1011.5 |
| 20260508221528 | 14 | 210 | 1.6 | 9.7 | 0.00 | 0.00 | 0.00 | 64 | 1011.6 |
| 20260508220028 | 15 | 214 | 1.6 | 12.9 | 0.00 | 0.00 | 0.00 | 60 | 1011.3 |
| 20260508214532 | 15 | 0 | 0.0 | 1.6 | 0.00 | 0.00 | 0.00 | 65 | 1010.7 |
| 20260508213028 | 15 | 0 | 0.0 | 1.6 | 0.00 | 0.00 | 0.00 | 66 | 1010.8 |